KGSH/GSH METAR and TAF weather

Enter ICAO airport designator
Station Type Date Time Source
KGSH METAR 2021/09/24 05:53 UTC NOAA

KGSH 240553Z AUTO 21005KT 10SM CLR 09/07 A2994 RMK AO2 SLP139 60000 T00890072 10122 20089 58002 $


Station Type Date Time Source
KGSH Decoded METAR 2021/09/24 05:53 UTC NOAA

GOSHEN MUNICIPAL AIRPORT, IN, United States (KGSH) 41-32N 85-47W 252M
Sep 24, 2021 - 01:53 AM EDT / 2021.09.24 0553 UTC
Wind: from the SSW (210 degrees) at 6 MPH (5 KT):0
Visibility: 10 mile(s):0
Sky conditions: clear
Temperature: 48.0 F (8.9 C)
Dew Point: 45.0 F (7.2 C)
Relative Humidity: 89%
Pressure (altimeter): 29.94 in. Hg (1013 hPa)
Pressure tendency: 0.01 inches (0.2 hPa) lower than three hours ago
ob: KGSH 240553Z AUTO 21005KT 10SM CLR 09/07 A2994 RMK AO2 SLP139 60000 T00890072 10122 20089 58002
cycle: 6

Station Type Date Time Source
KGSH TAF UTC NOAA

Error!

Example: see airport list